Wheatland, Pennsylvania
Current Conditions -  °F | °C
As of 10:51 PM on Saturday 25 Oct 2014 (Local Time) from KYNG Reporting Station
Clear Clear  
Wind Chill: 57°   Ceiling: Unl
Heat Index: 57°   Visibility: 10mi
Dew Point: 34°   Wind: 14mph
Humidity: 42%   Direction: 290°WNW
Pressure: 29.77"   Gusts: NA
Location:  41.2°N, 80.5°W
Report Text: KYNG 260251Z 29012KT 10SM CLR 14/01 A2977 RMK AO2 SLP080 T01390011 53007 $
Loading
Personal Weather Stations






























Interactive Weather Map
Tropical Storm Tracking
New forecast layout! Learn more

10-Day Weather Forecast

Advertisements
Track Severe Weather on mobile